createdAt,value
2018-12-25T00:00:05.869Z,1026.92
2018-12-25T00:01:05.890Z,1026.88
2018-12-25T00:02:05.910Z,1027.02
2018-12-25T00:03:05.936Z,1027.00
2018-12-25T00:04:05.959Z,1026.99
2018-12-25T00:05:05.979Z,1026.94
2018-12-25T00:06:06.003Z,1026.99
2018-12-25T00:07:06.028Z,1027.02
2018-12-25T00:08:06.047Z,1027.05
2018-12-25T00:09:06.070Z,1027.08
2018-12-25T00:10:06.097Z,1027.01
2018-12-25T00:11:06.120Z,1026.99
2018-12-25T00:12:06.145Z,1026.99
2018-12-25T00:13:06.168Z,1026.94
2018-12-25T00:14:06.318Z,1026.90
2018-12-25T00:15:06.212Z,1026.95
2018-12-25T00:16:06.234Z,1026.99
2018-12-25T00:17:06.255Z,1026.96
2018-12-25T00:18:06.285Z,1026.95
2018-12-25T00:19:06.564Z,1026.96
2018-12-25T00:20:06.326Z,1026.92
2018-12-25T00:21:06.346Z,1026.90
2018-12-25T00:22:06.371Z,1026.91
2018-12-25T00:23:06.401Z,1026.94
2018-12-25T00:24:06.414Z,1026.88
2018-12-25T00:25:06.440Z,1026.90
2018-12-25T00:26:06.463Z,1026.92
2018-12-25T00:27:06.484Z,1026.93
2018-12-25T00:28:06.506Z,1026.97
2018-12-25T00:29:06.531Z,1026.93
2018-12-25T00:30:06.554Z,1026.97
2018-12-25T00:31:06.574Z,1026.97
2018-12-25T00:32:06.599Z,1027.01
2018-12-25T00:33:06.621Z,1027.02
2018-12-25T00:34:06.645Z,1027.01
2018-12-25T00:35:06.667Z,1027.04
2018-12-25T00:36:06.688Z,1027.06
2018-12-25T00:37:06.711Z,1027.07
2018-12-25T00:38:06.736Z,1027.07
2018-12-25T00:39:06.758Z,1027.09
2018-12-25T00:40:06.781Z,1027.13
2018-12-25T00:41:06.812Z,1027.14
2018-12-25T00:42:06.824Z,1027.08
2018-12-25T00:43:06.847Z,1027.11
2018-12-25T00:44:06.872Z,1027.11
2018-12-25T00:45:06.894Z,1027.06
2018-12-25T00:46:06.917Z,1027.08
2018-12-25T00:47:06.942Z,1027.07
2018-12-25T00:48:06.961Z,1027.06
2018-12-25T00:49:14.534Z,1027.06
2018-12-25T00:50:07.007Z,1027.08
2018-12-25T00:51:07.028Z,1027.11
2018-12-25T00:52:07.055Z,1027.09
2018-12-25T00:53:07.078Z,1027.08
2018-12-25T00:54:07.103Z,1027.09
2018-12-25T00:55:07.119Z,1027.10
2018-12-25T00:56:07.148Z,1027.13
2018-12-25T00:57:07.167Z,1027.15
2018-12-25T00:58:07.190Z,1027.14
2018-12-25T00:59:07.213Z,1027.14
2018-12-25T01:00:07.235Z,1027.18
2018-12-25T01:01:07.258Z,1027.15
2018-12-25T01:02:07.281Z,1027.20
2018-12-25T01:03:07.304Z,1027.17
2018-12-25T01:04:07.324Z,1027.25
2018-12-25T01:05:07.347Z,1027.20
2018-12-25T01:06:07.372Z,1027.18
2018-12-25T01:07:07.399Z,1027.17
2018-12-25T01:08:07.416Z,1027.19
2018-12-25T01:09:07.439Z,1027.10
2018-12-25T01:10:07.462Z,1027.13
2018-12-25T01:11:07.485Z,1027.17
2018-12-25T01:12:07.509Z,1027.20
2018-12-25T01:13:07.529Z,1027.17
2018-12-25T01:14:07.558Z,1027.10
2018-12-25T01:15:07.578Z,1027.12
2018-12-25T01:16:07.602Z,1027.10
2018-12-25T01:17:07.624Z,1027.11
2018-12-25T01:18:07.646Z,1027.14
2018-12-25T01:19:07.667Z,1027.09
2018-12-25T01:20:07.691Z,1027.08
2018-12-25T01:21:07.717Z,1027.11
2018-12-25T01:22:07.735Z,1027.04
2018-12-25T01:23:07.758Z,1027.07
2018-12-25T01:24:07.782Z,1027.06
2018-12-25T01:25:07.807Z,1027.02
2018-12-25T01:26:07.832Z,1027.06
2018-12-25T01:27:07.851Z,1027.05
2018-12-25T01:28:07.874Z,1027.03
2018-12-25T01:29:07.897Z,1027.07
2018-12-25T01:30:07.916Z,1027.05
2018-12-25T01:31:07.944Z,1027.05
2018-12-25T01:32:07.962Z,1027.06
2018-12-25T01:33:07.988Z,1027.09
2018-12-25T01:34:08.009Z,1027.03
2018-12-25T01:35:08.032Z,1027.03
2018-12-25T01:36:08.058Z,1027.05
2018-12-25T01:37:08.079Z,1027.07
2018-12-25T01:38:08.101Z,1027.08
2018-12-25T01:39:08.124Z,1027.05
2018-12-25T01:40:08.148Z,1027.10
2018-12-25T01:41:08.174Z,1027.13
2018-12-25T01:42:08.191Z,1027.12
2018-12-25T01:43:08.215Z,1027.14
2018-12-25T01:44:08.240Z,1027.18
2018-12-25T01:45:08.262Z,1027.10
2018-12-25T01:46:08.289Z,1027.16
2018-12-25T01:47:08.307Z,1027.15
2018-12-25T01:48:08.331Z,1027.22
2018-12-25T01:49:08.352Z,1027.20
2018-12-25T01:50:08.377Z,1027.18
2018-12-25T01:51:08.397Z,1027.17
2018-12-25T01:52:08.419Z,1027.21
2018-12-25T01:53:08.443Z,1027.24
2018-12-25T01:54:08.468Z,1027.15
2018-12-25T01:55:08.489Z,1027.23
2018-12-25T01:56:08.512Z,1027.20
2018-12-25T01:57:08.541Z,1027.19
2018-12-25T01:58:08.561Z,1027.22
2018-12-25T01:59:08.581Z,1027.26
2018-12-25T02:00:08.602Z,1027.26
2018-12-25T02:01:08.629Z,1027.30
2018-12-25T02:02:08.653Z,1027.30
2018-12-25T02:03:08.672Z,1027.29
2018-12-25T02:04:08.695Z,1027.35
2018-12-25T02:05:08.720Z,1027.38
2018-12-25T02:06:08.741Z,1027.34
2018-12-25T02:07:08.765Z,1027.38
2018-12-25T02:08:08.789Z,1027.38
2018-12-25T02:09:08.810Z,1027.37
2018-12-25T02:10:08.835Z,1027.41
2018-12-25T02:11:08.856Z,1027.44
2018-12-25T02:12:08.881Z,1027.40
2018-12-25T02:13:08.904Z,1027.41
2018-12-25T02:14:08.925Z,1027.38
2018-12-25T02:15:08.949Z,1027.33
2018-12-25T02:16:08.971Z,1027.38
2018-12-25T02:17:08.996Z,1027.38
2018-12-25T02:18:09.021Z,1027.37
2018-12-25T02:19:09.046Z,1027.36
2018-12-25T02:20:09.063Z,1027.34
2018-12-25T02:21:09.087Z,1027.35
2018-12-25T02:22:09.108Z,1027.30
2018-12-25T02:23:09.139Z,1027.29
2018-12-25T02:24:09.157Z,1027.28
2018-12-25T02:25:09.180Z,1027.32
2018-12-25T02:26:09.200Z,1027.29
2018-12-25T02:27:09.224Z,1027.36
2018-12-25T02:28:09.248Z,1027.35
2018-12-25T02:29:09.268Z,1027.29
2018-12-25T02:30:09.295Z,1027.26
2018-12-25T02:31:09.319Z,1027.27
2018-12-25T02:32:09.340Z,1027.22
2018-12-25T02:33:09.365Z,1027.23
2018-12-25T02:34:09.385Z,1027.26
2018-12-25T02:35:09.410Z,1027.19
2018-12-25T02:36:09.433Z,1027.21
2018-12-25T02:37:09.455Z,1027.11
2018-12-25T02:38:09.478Z,1027.12
2018-12-25T02:39:09.502Z,1027.10
2018-12-25T02:40:09.526Z,1027.13
2018-12-25T02:41:09.546Z,1027.19
2018-12-25T02:42:09.573Z,1027.14
2018-12-25T02:43:09.592Z,1027.19
2018-12-25T02:44:09.615Z,1027.18
2018-12-25T02:45:09.638Z,1027.17
2018-12-25T02:46:09.663Z,1027.16
2018-12-25T02:47:09.686Z,1027.12
2018-12-25T02:48:09.704Z,1027.17
2018-12-25T02:49:09.728Z,1027.08
2018-12-25T02:50:09.749Z,1027.07
2018-12-25T02:51:09.782Z,1027.04
2018-12-25T02:52:09.794Z,1027.01
2018-12-25T02:53:09.819Z,1027.07
2018-12-25T02:54:09.844Z,1026.99
2018-12-25T02:55:09.866Z,1027.02
2018-12-25T02:56:09.885Z,1027.01
2018-12-25T02:57:09.917Z,1027.08
2018-12-25T02:58:09.932Z,1026.96
2018-12-25T02:59:09.956Z,1027.02
2018-12-25T03:00:10.018Z,1026.98
2018-12-25T03:01:10.002Z,1027.01
2018-12-25T03:02:10.032Z,1027.06
2018-12-25T03:03:10.048Z,1027.01
2018-12-25T03:04:10.071Z,1027.03
2018-12-25T03:05:10.093Z,1027.01
2018-12-25T03:06:10.116Z,1026.97
2018-12-25T03:07:10.136Z,1026.97
2018-12-25T03:08:10.160Z,1026.99
2018-12-25T03:09:10.181Z,1026.98
2018-12-25T03:10:10.204Z,1027.02
2018-12-25T03:11:10.229Z,1027.01
2018-12-25T03:12:10.252Z,1027.04
2018-12-25T03:13:10.283Z,1027.06
2018-12-25T03:14:10.298Z,1027.03
2018-12-25T03:15:10.317Z,1027.04
2018-12-25T03:16:10.389Z,1027.05
2018-12-25T03:17:10.367Z,1027.06
2018-12-25T03:18:10.390Z,1027.00
2018-12-25T03:19:10.420Z,1027.03
2018-12-25T03:20:10.435Z,1026.93
2018-12-25T03:21:10.453Z,1026.89
2018-12-25T03:22:10.582Z,1026.85
2018-12-25T03:23:10.498Z,1026.77
2018-12-25T03:24:10.525Z,1026.80
2018-12-25T03:25:10.545Z,1026.75
2018-12-25T03:26:10.566Z,1026.79
2018-12-25T03:27:10.591Z,1026.74
2018-12-25T03:28:10.612Z,1026.75
2018-12-25T03:29:10.633Z,1026.74
2018-12-25T03:30:10.665Z,1026.73
2018-12-25T03:31:10.683Z,1026.71
2018-12-25T03:32:10.713Z,1026.71
2018-12-25T03:33:10.728Z,1026.68
2018-12-25T03:34:10.754Z,1026.64
2018-12-25T03:35:10.787Z,1026.71
2018-12-25T03:36:10.792Z,1026.69
2018-12-25T03:37:10.823Z,1026.68
2018-12-25T03:38:10.840Z,1026.70
2018-12-25T03:39:10.864Z,1026.70
2018-12-25T03:40:10.885Z,1026.75
2018-12-25T03:41:10.909Z,1026.68
2018-12-25T03:42:10.932Z,1026.69
2018-12-25T03:43:10.954Z,1026.64
2018-12-25T03:44:10.981Z,1026.67
2018-12-25T03:45:10.998Z,1026.66
2018-12-25T03:46:11.021Z,1026.65
2018-12-25T03:47:11.044Z,1026.65
2018-12-25T03:48:11.064Z,1026.63
2018-12-25T03:49:11.093Z,1026.71
2018-12-25T03:50:11.296Z,1026.67
2018-12-25T03:51:11.135Z,1026.69
2018-12-25T03:52:11.171Z,1026.66
2018-12-25T03:53:11.177Z,1026.64
2018-12-25T03:54:11.200Z,1026.68
2018-12-25T03:55:11.225Z,1026.67
2018-12-25T03:56:11.248Z,1026.59
2018-12-25T03:57:11.271Z,1026.66
2018-12-25T03:58:11.293Z,1026.51
2018-12-25T03:59:11.314Z,1026.63
2018-12-25T04:00:11.340Z,1026.62
2018-12-25T04:01:11.362Z,1026.69
2018-12-25T04:02:11.391Z,1026.67
2018-12-25T04:03:11.408Z,1026.62
2018-12-25T04:04:11.431Z,1026.58
2018-12-25T04:05:11.453Z,1026.60
2018-12-25T04:06:11.473Z,1026.63
2018-12-25T04:07:11.496Z,1026.66
2018-12-25T04:08:11.516Z,1026.69
2018-12-25T04:09:11.541Z,1026.64
2018-12-25T04:10:11.573Z,1026.63
2018-12-25T04:11:11.587Z,1026.69
2018-12-25T04:12:11.607Z,1026.72
2018-12-25T04:13:11.631Z,1026.71
2018-12-25T04:14:11.655Z,1026.73
2018-12-25T04:15:11.677Z,1026.68
2018-12-25T04:16:11.700Z,1026.67
2018-12-25T04:17:11.728Z,1026.67
2018-12-25T04:18:11.749Z,1026.72
2018-12-25T04:19:11.767Z,1026.75
2018-12-25T04:20:19.782Z,1026.77
2018-12-25T04:21:11.812Z,1026.76
2018-12-25T04:22:11.834Z,1026.70
2018-12-25T04:23:11.856Z,1026.69
2018-12-25T04:24:11.878Z,1026.73
2018-12-25T04:25:11.906Z,1026.70
2018-12-25T04:26:11.927Z,1026.69
2018-12-25T04:27:11.947Z,1026.70
2018-12-25T04:28:11.975Z,1026.67
2018-12-25T04:29:11.999Z,1026.71
2018-12-25T04:30:12.016Z,1026.63
2018-12-25T04:31:12.039Z,1026.64
2018-12-25T04:32:12.062Z,1026.69
2018-12-25T04:33:12.087Z,1026.72
2018-12-25T04:34:12.107Z,1026.68
2018-12-25T04:35:12.136Z,1026.63
2018-12-25T04:36:12.153Z,1026.67
2018-12-25T04:37:12.180Z,1026.71
2018-12-25T04:38:12.199Z,1026.73
2018-12-25T04:39:12.218Z,1026.70
2018-12-25T04:40:12.240Z,1026.66
2018-12-25T04:41:12.271Z,1026.64
2018-12-25T04:42:12.286Z,1026.64
2018-12-25T04:43:12.310Z,1026.67
2018-12-25T04:44:12.332Z,1026.62
2018-12-25T04:45:12.358Z,1026.63
2018-12-25T04:46:12.379Z,1026.66
2018-12-25T04:47:12.400Z,1026.69
2018-12-25T04:48:12.422Z,1026.68
2018-12-25T04:49:12.447Z,1026.67
2018-12-25T04:50:12.470Z,1026.66
2018-12-25T04:51:12.504Z,1026.66
2018-12-25T04:52:12.515Z,1026.66
2018-12-25T04:53:12.539Z,1026.64
2018-12-25T04:54:12.560Z,1026.68
2018-12-25T04:55:12.581Z,1026.61
2018-12-25T04:56:12.609Z,1026.62
2018-12-25T04:57:12.626Z,1026.62
2018-12-25T04:58:12.652Z,1026.68
2018-12-25T04:59:12.673Z,1026.66
2018-12-25T05:00:12.697Z,1026.65
2018-12-25T05:01:12.719Z,1026.74
2018-12-25T05:02:12.739Z,1026.73
2018-12-25T05:03:12.764Z,1026.73
2018-12-25T05:04:12.788Z,1026.75
2018-12-25T05:05:12.809Z,1026.74
2018-12-25T05:06:12.830Z,1026.75
2018-12-25T05:07:12.853Z,1026.75
2018-12-25T05:08:12.873Z,1026.76
2018-12-25T05:09:12.901Z,1026.76
2018-12-25T05:10:12.923Z,1026.72
2018-12-25T05:11:12.949Z,1026.74
2018-12-25T05:12:12.965Z,1026.78
2018-12-25T05:13:12.986Z,1026.76
2018-12-25T05:14:13.009Z,1026.76
2018-12-25T05:15:13.033Z,1026.75
2018-12-25T05:16:13.055Z,1026.79
2018-12-25T05:17:13.077Z,1026.79
2018-12-25T05:18:13.102Z,1026.81
2018-12-25T05:19:13.126Z,1026.74
2018-12-25T05:20:13.147Z,1026.77
2018-12-25T05:21:13.173Z,1026.72
2018-12-25T05:22:13.192Z,1026.71
2018-12-25T05:23:13.215Z,1026.70
2018-12-25T05:24:13.238Z,1026.68
2018-12-25T05:25:13.258Z,1026.71
2018-12-25T05:26:13.286Z,1026.67
2018-12-25T05:27:13.306Z,1026.74
2018-12-25T05:28:13.328Z,1026.73
2018-12-25T05:29:13.349Z,1026.69
2018-12-25T05:30:13.372Z,1026.74
2018-12-25T05:32:00.953Z,1026.73
2018-12-25T05:33:00.980Z,1026.79
2018-12-25T05:34:01.000Z,1026.77
2018-12-25T05:35:01.110Z,1026.74
2018-12-25T05:36:01.045Z,1026.75
2018-12-25T05:37:01.066Z,1026.75
2018-12-25T05:38:01.090Z,1026.76
2018-12-25T05:39:01.110Z,1026.78
2018-12-25T05:40:01.132Z,1026.78
2018-12-25T05:41:01.157Z,1026.79
2018-12-25T05:42:01.175Z,1026.80
2018-12-25T05:43:01.201Z,1026.78
2018-12-25T05:44:01.223Z,1026.77
2018-12-25T05:45:01.243Z,1026.76
2018-12-25T05:46:01.267Z,1026.82
2018-12-25T05:47:01.290Z,1026.78
2018-12-25T05:48:01.312Z,1026.77
2018-12-25T05:49:01.332Z,1026.74
2018-12-25T05:50:01.356Z,1026.73
2018-12-25T05:51:01.376Z,1026.78
2018-12-25T05:52:01.401Z,1026.79
2018-12-25T05:53:01.425Z,1026.86
2018-12-25T05:54:01.445Z,1026.85
2018-12-25T05:55:01.468Z,1026.89
2018-12-25T05:56:01.490Z,1026.84
2018-12-25T05:57:01.515Z,1026.90
2018-12-25T05:58:01.536Z,1026.87
2018-12-25T05:59:01.557Z,1026.90
2018-12-25T06:00:01.582Z,1026.92
2018-12-25T06:01:01.605Z,1026.91
2018-12-25T06:02:01.628Z,1026.90
2018-12-25T06:04:22.914Z,1026.87
2018-12-25T06:05:19.299Z,1026.89
2018-12-25T06:06:19.322Z,1026.90
2018-12-25T06:07:19.348Z,1026.92
2018-12-25T06:08:19.365Z,1026.93
2018-12-25T06:09:19.389Z,1026.95
2018-12-25T06:10:19.413Z,1026.96
2018-12-25T06:11:19.435Z,1026.90
2018-12-25T06:12:19.455Z,1026.89
2018-12-25T06:13:19.478Z,1026.87
2018-12-25T06:14:19.502Z,1026.81
2018-12-25T06:15:19.525Z,1026.84
2018-12-25T06:16:19.547Z,1026.90
2018-12-25T06:17:19.568Z,1026.85
2018-12-25T06:18:19.593Z,1026.85
2018-12-25T06:19:19.615Z,1026.88
2018-12-25T06:20:19.634Z,1026.86
2018-12-25T06:21:19.658Z,1026.85
2018-12-25T06:22:19.680Z,1026.89
2018-12-25T06:23:19.704Z,1026.88
2018-12-25T06:24:19.725Z,1026.91
2018-12-25T06:25:19.764Z,1026.94
2018-12-25T06:26:19.770Z,1026.94
2018-12-25T06:27:19.794Z,1026.94
2018-12-25T06:28:19.815Z,1026.90
2018-12-25T06:29:19.840Z,1026.90
2018-12-25T06:30:19.862Z,1026.92
2018-12-25T06:31:21.423Z,1026.92
2018-12-25T06:32:19.907Z,1026.87
2018-12-25T06:33:19.931Z,1026.85
2018-12-25T06:34:19.953Z,1026.89
2018-12-25T06:35:19.978Z,1026.93
2018-12-25T06:36:19.995Z,1026.90
2018-12-25T06:37:20.021Z,1026.94
2018-12-25T06:38:20.043Z,1026.90
2018-12-25T06:39:20.067Z,1026.92
2018-12-25T06:40:20.088Z,1026.86
2018-12-25T06:41:20.111Z,1026.87
2018-12-25T06:42:20.131Z,1026.86
2018-12-25T06:43:20.156Z,1026.87
2018-12-25T06:44:20.177Z,1026.86
2018-12-25T06:45:20.202Z,1026.82
2018-12-25T06:46:20.223Z,1026.83
2018-12-25T06:47:20.250Z,1026.81
2018-12-25T06:48:20.265Z,1026.83
2018-12-25T06:49:20.291Z,1026.80
2018-12-25T06:50:20.310Z,1026.80
2018-12-25T06:51:20.335Z,1026.80
2018-12-25T06:52:20.357Z,1026.80
2018-12-25T06:53:20.380Z,1026.77
2018-12-25T06:54:20.403Z,1026.74
2018-12-25T06:55:20.424Z,1026.72
2018-12-25T06:56:20.449Z,1026.68
2018-12-25T06:57:20.469Z,1026.65
2018-12-25T06:58:20.492Z,1026.68
2018-12-25T06:59:20.515Z,1026.59
2018-12-25T07:00:20.537Z,1026.57
2018-12-25T07:01:20.558Z,1026.60
2018-12-25T07:02:20.589Z,1026.60
2018-12-25T07:03:20.607Z,1026.61
2018-12-25T07:04:20.627Z,1026.63
2018-12-25T07:05:20.649Z,1026.63
2018-12-25T07:06:20.675Z,1026.59
2018-12-25T07:07:20.694Z,1026.56
2018-12-25T07:08:20.717Z,1026.51
2018-12-25T07:09:20.739Z,1026.53
2018-12-25T07:10:20.759Z,1026.58
2018-12-25T07:11:20.782Z,1026.55
2018-12-25T07:12:20.806Z,1026.63
2018-12-25T07:13:20.827Z,1026.60
2018-12-25T07:14:20.852Z,1026.66
2018-12-25T07:15:20.872Z,1026.64
2018-12-25T07:16:20.896Z,1026.63
2018-12-25T07:17:20.916Z,1026.62
2018-12-25T07:18:20.941Z,1026.64
2018-12-25T07:19:20.964Z,1026.62
2018-12-25T07:20:20.984Z,1026.61
2018-12-25T07:21:21.010Z,1026.59
2018-12-25T07:22:21.031Z,1026.50
2018-12-25T07:23:21.051Z,1026.51
2018-12-25T07:24:21.074Z,1026.52
2018-12-25T07:25:21.096Z,1026.49
2018-12-25T07:26:21.121Z,1026.44
2018-12-25T07:27:21.142Z,1026.51
2018-12-25T07:28:21.166Z,1026.45
2018-12-25T07:29:21.187Z,1026.48
2018-12-25T07:30:21.211Z,1026.48
2018-12-25T07:31:21.238Z,1026.45
2018-12-25T07:32:21.255Z,1026.43
2018-12-25T07:33:21.279Z,1026.48
2018-12-25T07:34:21.300Z,1026.43
2018-12-25T07:35:21.326Z,1026.47
2018-12-25T07:36:21.345Z,1026.54
2018-12-25T07:37:21.368Z,1026.60
2018-12-25T07:38:21.390Z,1026.63
2018-12-25T07:39:21.414Z,1026.64
2018-12-25T07:40:21.437Z,1026.60
2018-12-25T07:41:21.458Z,1026.67
2018-12-25T07:42:21.481Z,1026.66
2018-12-25T07:43:21.503Z,1026.67
2018-12-25T07:44:21.526Z,1026.77
2018-12-25T07:45:21.547Z,1026.78
2018-12-25T07:46:21.571Z,1026.76
2018-12-25T07:47:21.593Z,1026.76
2018-12-25T07:48:21.617Z,1026.78
2018-12-25T07:49:21.639Z,1026.78
2018-12-25T07:50:21.664Z,1026.72
2018-12-25T07:51:21.685Z,1026.72
2018-12-25T07:52:21.705Z,1026.68
2018-12-25T07:53:21.731Z,1026.72
2018-12-25T07:54:21.753Z,1026.72
2018-12-25T07:55:21.774Z,1026.75
2018-12-25T07:56:21.796Z,1026.72
2018-12-25T07:57:21.821Z,1026.71
2018-12-25T07:58:21.841Z,1026.67
2018-12-25T07:59:21.869Z,1026.68
2018-12-25T08:00:21.887Z,1026.72
2018-12-25T08:01:21.912Z,1026.74
2018-12-25T08:02:21.933Z,1026.77
2018-12-25T08:03:21.958Z,1026.75
2018-12-25T08:04:21.976Z,1026.75
2018-12-25T08:05:22.001Z,1026.69
2018-12-25T08:06:22.030Z,1026.77
2018-12-25T08:07:22.048Z,1026.77
2018-12-25T08:08:22.071Z,1026.80
2018-12-25T08:09:22.092Z,1026.84
2018-12-25T08:10:22.116Z,1026.81
2018-12-25T08:11:22.138Z,1026.83
2018-12-25T08:12:22.159Z,1026.86
2018-12-25T08:13:22.185Z,1026.89
2018-12-25T08:14:22.205Z,1026.85
2018-12-25T08:15:22.231Z,1026.84
2018-12-25T08:16:22.252Z,1026.81
2018-12-25T08:17:22.276Z,1026.83
2018-12-25T08:18:22.298Z,1026.83
2018-12-25T08:19:22.318Z,1026.87
2018-12-25T08:20:22.341Z,1026.81
2018-12-25T08:21:29.255Z,1026.80
2018-12-25T08:22:22.389Z,1026.78
2018-12-25T08:23:22.409Z,1026.82
2018-12-25T08:24:22.434Z,1026.77
2018-12-25T08:25:22.454Z,1026.80
2018-12-25T08:26:22.477Z,1026.76
2018-12-25T08:27:22.500Z,1026.78
2018-12-25T08:28:22.522Z,1026.70
2018-12-25T08:29:22.549Z,1026.72
2018-12-25T08:30:22.573Z,1026.67
2018-12-25T08:31:22.600Z,1026.72
2018-12-25T08:32:22.618Z,1026.71
2018-12-25T08:33:22.639Z,1026.72
2018-12-25T08:34:22.659Z,1026.78
2018-12-25T08:35:22.684Z,1026.73
2018-12-25T08:36:22.704Z,1026.73
2018-12-25T08:37:22.730Z,1026.75
2018-12-25T08:38:22.752Z,1026.72
2018-12-25T08:39:22.776Z,1026.69
2018-12-25T08:40:22.795Z,1026.64
2018-12-25T08:41:22.819Z,1026.65
2018-12-25T08:42:22.841Z,1026.57
2018-12-25T08:43:22.865Z,1026.63
2018-12-25T08:44:22.889Z,1026.59
2018-12-25T08:45:22.910Z,1026.64
2018-12-25T08:46:22.933Z,1026.56
2018-12-25T08:47:22.958Z,1026.54
2018-12-25T08:48:22.978Z,1026.51
2018-12-25T08:49:23.002Z,1026.48
2018-12-25T08:50:23.024Z,1026.43
2018-12-25T08:51:23.049Z,1026.43
2018-12-25T08:52:23.586Z,1026.39
2018-12-25T08:53:23.093Z,1026.38
2018-12-25T08:54:23.119Z,1026.41
2018-12-25T08:55:23.139Z,1026.34
2018-12-25T08:56:23.162Z,1026.41
2018-12-25T08:57:23.186Z,1026.46
2018-12-25T08:58:23.209Z,1026.52
2018-12-25T08:59:23.235Z,1026.56
2018-12-25T09:00:23.254Z,1026.61
2018-12-25T09:01:23.276Z,1026.56
2018-12-25T09:02:23.301Z,1026.53
2018-12-25T09:03:23.323Z,1026.56
2018-12-25T09:04:23.346Z,1026.54
2018-12-25T09:05:23.368Z,1026.55
2018-12-25T09:06:23.390Z,1026.46
2018-12-25T09:07:23.421Z,1026.43
2018-12-25T09:08:23.437Z,1026.48
2018-12-25T09:09:23.461Z,1026.42
2018-12-25T09:10:23.482Z,1026.42
2018-12-25T09:11:23.506Z,1026.41
2018-12-25T09:12:23.531Z,1026.40
2018-12-25T09:13:23.553Z,1026.34
2018-12-25T09:14:23.575Z,1026.31
2018-12-25T09:15:23.600Z,1026.38
2018-12-25T09:16:23.621Z,1026.36
2018-12-25T09:17:23.643Z,1026.34
2018-12-25T09:18:23.668Z,1026.33
2018-12-25T09:19:23.689Z,1026.36
2018-12-25T09:20:23.716Z,1026.30
2018-12-25T09:21:23.736Z,1026.33
2018-12-25T09:22:23.757Z,1026.36
2018-12-25T09:23:23.780Z,1026.38
2018-12-25T09:24:23.803Z,1026.43
2018-12-25T09:25:23.829Z,1026.44
2018-12-25T09:26:23.852Z,1026.48
2018-12-25T09:27:23.872Z,1026.51
2018-12-25T09:28:23.998Z,1026.54
2018-12-25T09:29:23.918Z,1026.59
2018-12-25T09:30:23.942Z,1026.61
2018-12-25T09:31:23.975Z,1026.61
2018-12-25T09:32:23.992Z,1026.67
2018-12-25T09:33:24.013Z,1026.68
2018-12-25T09:34:24.037Z,1026.70
2018-12-25T09:35:24.058Z,1026.73
2018-12-25T09:36:24.086Z,1026.71
2018-12-25T09:37:24.106Z,1026.71
2018-12-25T09:38:24.131Z,1026.63
2018-12-25T09:39:24.153Z,1026.69
2018-12-25T09:40:24.174Z,1026.71
2018-12-25T09:41:24.200Z,1026.68
2018-12-25T09:42:24.221Z,1026.72
2018-12-25T09:43:24.245Z,1026.75
2018-12-25T09:44:24.268Z,1026.88
2018-12-25T09:45:24.291Z,1026.83
2018-12-25T09:46:24.319Z,1026.79
2018-12-25T09:47:24.339Z,1026.82
2018-12-25T09:48:24.362Z,1026.80
2018-12-25T09:49:24.388Z,1026.87
2018-12-25T09:50:24.410Z,1026.93
2018-12-25T09:51:24.434Z,1026.89
2018-12-25T09:52:24.457Z,1026.86
2018-12-25T09:53:24.484Z,1026.90
2018-12-25T09:54:24.520Z,1026.89
2018-12-25T09:55:24.532Z,1026.91
2018-12-25T09:56:24.555Z,1026.89
2018-12-25T09:57:24.578Z,1026.85
2018-12-25T09:58:24.602Z,1026.88
2018-12-25T09:59:24.627Z,1026.90
2018-12-25T10:00:24.649Z,1026.90
2018-12-25T10:01:24.676Z,1026.97
2018-12-25T10:02:24.701Z,1026.91
2018-12-25T10:03:24.722Z,1026.92
2018-12-25T10:04:24.746Z,1026.90
2018-12-25T10:05:24.774Z,1026.89
2018-12-25T10:06:24.795Z,1026.82
2018-12-25T10:07:24.822Z,1026.87
2018-12-25T10:08:24.843Z,1026.83
2018-12-25T10:09:24.870Z,1026.80
2018-12-25T10:10:24.892Z,1026.80
2018-12-25T10:11:24.919Z,1026.83
2018-12-25T10:12:24.940Z,1026.88
2018-12-25T10:13:24.967Z,1026.92
2018-12-25T10:14:24.992Z,1026.93
2018-12-25T10:15:25.016Z,1026.96
2018-12-25T10:16:25.037Z,1027.01
2018-12-25T10:17:25.061Z,1026.96
2018-12-25T10:18:25.085Z,1027.01
2018-12-25T10:19:25.113Z,1026.96
2018-12-25T10:20:25.134Z,1026.92
2018-12-25T10:21:25.158Z,1026.88
2018-12-25T10:22:25.184Z,1026.89
2018-12-25T10:23:25.210Z,1026.90
2018-12-25T10:24:25.230Z,1026.84
2018-12-25T10:25:25.254Z,1026.84
2018-12-25T10:26:25.279Z,1026.78
2018-12-25T10:27:25.304Z,1026.80
2018-12-25T10:28:25.330Z,1026.71
2018-12-25T10:29:25.351Z,1026.73
2018-12-25T10:30:25.376Z,1026.69
2018-12-25T10:31:25.408Z,1026.80
2018-12-25T10:32:25.426Z,1026.78
2018-12-25T10:33:25.451Z,1026.72
2018-12-25T10:34:25.471Z,1026.69
2018-12-25T10:35:25.499Z,1026.69
2018-12-25T10:36:25.520Z,1026.59
2018-12-25T10:37:25.546Z,1026.64
2018-12-25T10:38:25.572Z,1026.64
2018-12-25T10:39:25.596Z,1026.58
2018-12-25T10:40:25.617Z,1026.59
2018-12-25T10:41:25.642Z,1026.62
2018-12-25T10:42:25.668Z,1026.61
2018-12-25T10:43:25.692Z,1026.64
2018-12-25T10:44:25.716Z,1026.66
2018-12-25T10:45:25.739Z,1026.69
2018-12-25T10:46:25.766Z,1026.72
2018-12-25T10:47:25.787Z,1026.74
2018-12-25T10:48:25.814Z,1026.71
2018-12-25T10:49:25.836Z,1026.71
2018-12-25T10:50:25.862Z,1026.69
2018-12-25T10:51:25.887Z,1026.65
2018-12-25T10:52:25.913Z,1026.72
2018-12-25T10:53:25.935Z,1026.67
2018-12-25T10:54:25.961Z,1026.70
2018-12-25T10:55:25.984Z,1026.71
2018-12-25T10:56:26.008Z,1026.66
2018-12-25T10:57:26.033Z,1026.70
2018-12-25T10:58:26.056Z,1026.71
2018-12-25T10:59:26.083Z,1026.68
2018-12-25T11:00:26.103Z,1026.67
2018-12-25T11:01:26.381Z,1026.56
2018-12-25T11:02:26.355Z,1026.57
2018-12-25T11:03:26.179Z,1026.59
2018-12-25T11:04:26.352Z,1026.67
2018-12-25T11:05:26.378Z,1026.64
2018-12-25T11:06:26.402Z,1026.65
2018-12-25T11:07:26.378Z,1026.65
2018-12-25T11:08:26.302Z,1026.66
2018-12-25T11:09:26.379Z,1026.66
2018-12-25T11:10:26.401Z,1026.74
2018-12-25T11:11:26.425Z,1026.74
2018-12-25T11:12:26.396Z,1026.75
2018-12-25T11:13:26.422Z,1026.75
2018-12-25T11:14:26.449Z,1026.75
2018-12-25T11:15:26.473Z,1026.78
2018-12-25T11:16:26.498Z,1026.75
2018-12-25T11:17:26.519Z,1026.75
2018-12-25T11:18:26.547Z,1026.77
2018-12-25T11:19:26.570Z,1026.76
2018-12-25T11:20:26.594Z,1026.69
2018-12-25T11:21:26.624Z,1026.73
2018-12-25T11:22:26.643Z,1026.69
2018-12-25T11:23:26.669Z,1026.71
2018-12-25T11:24:26.693Z,1026.70
2018-12-25T11:25:26.716Z,1026.69
2018-12-25T11:26:26.744Z,1026.74
2018-12-25T11:27:26.769Z,1026.76
2018-12-25T11:28:26.791Z,1026.75
2018-12-25T11:29:26.816Z,1026.72
2018-12-25T11:30:26.842Z,1026.75
2018-12-25T11:31:26.866Z,1026.74
2018-12-25T11:32:26.896Z,1026.72
2018-12-25T11:33:26.915Z,1026.75
2018-12-25T11:34:26.939Z,1026.72
2018-12-25T11:35:26.965Z,1026.71
2018-12-25T11:36:26.988Z,1026.71
2018-12-25T11:37:27.014Z,1026.69
2018-12-25T11:38:27.239Z,1026.71
2018-12-25T11:39:27.062Z,1026.69
2018-12-25T11:40:27.086Z,1026.68
2018-12-25T11:41:27.110Z,1026.68
2018-12-25T11:42:27.136Z,1026.64
2018-12-25T11:43:27.159Z,1026.62
2018-12-25T11:44:27.183Z,1026.59
2018-12-25T11:45:27.208Z,1026.54
2018-12-25T11:46:27.235Z,1026.53
2018-12-25T11:47:27.259Z,1026.51
2018-12-25T11:48:27.285Z,1026.52
2018-12-25T11:49:27.310Z,1026.47
2018-12-25T11:50:27.334Z,1026.50
2018-12-25T11:51:27.459Z,1026.51
2018-12-25T11:52:28.460Z,1026.55
2018-12-25T11:53:27.406Z,1026.61
2018-12-25T11:54:27.484Z,1026.59
2018-12-25T11:55:27.459Z,1026.62
2018-12-25T11:56:27.480Z,1026.57
2018-12-25T11:57:27.508Z,1026.55
2018-12-25T11:58:27.532Z,1026.47
2018-12-25T11:59:27.558Z,1026.45
2018-12-25T12:00:27.582Z,1026.46
2018-12-25T12:01:27.608Z,1026.43
2018-12-25T12:02:27.636Z,1026.46
2018-12-25T12:03:27.658Z,1026.49
2018-12-25T12:04:27.680Z,1026.43
2018-12-25T12:05:27.707Z,1026.45
2018-12-25T12:06:27.730Z,1026.46
2018-12-25T12:07:27.755Z,1026.45